sensor_id;sensor_type;location;lat;lon;timestamp;pressure;altitude;pressure_sealevel;temperature;humidity
11605;BME280;5858;43.076;25.626;2022-10-15T00:01:07;99553.81;;;11.08;93.02
11605;BME280;5858;43.076;25.626;2022-10-15T00:03:38;99679.31;;;11.80;94.00
11605;BME280;5858;43.076;25.626;2022-10-15T00:06:06;99619.22;;;11.37;93.73
11605;BME280;5858;43.076;25.626;2022-10-15T00:08:38;99682.19;;;11.55;93.91
11605;BME280;5858;43.076;25.626;2022-10-15T00:11:07;99569.91;;;11.08;93.61
11605;BME280;5858;43.076;25.626;2022-10-15T00:13:34;99697.25;;;11.79;93.74
11605;BME280;5858;43.076;25.626;2022-10-15T00:16:02;99603.69;;;11.09;94.37
11605;BME280;5858;43.076;25.626;2022-10-15T00:18:29;99605.28;;;11.18;94.46
11605;BME280;5858;43.076;25.626;2022-10-15T00:20:56;99679.69;;;11.54;94.50
11605;BME280;5858;43.076;25.626;2022-10-15T00:23:23;99596.56;;;11.01;94.76
11605;BME280;5858;43.076;25.626;2022-10-15T00:26:00;99628.28;;;11.35;93.97
11605;BME280;5858;43.076;25.626;2022-10-15T00:28:27;99608.50;;;11.14;94.23
11605;BME280;5858;43.076;25.626;2022-10-15T00:30:59;99660.06;;;11.39;94.68
11605;BME280;5858;43.076;25.626;2022-10-15T00:33:26;99630.53;;;11.24;94.73
11605;BME280;5858;43.076;25.626;2022-10-15T00:35:58;99720.22;;;11.74;94.23
11605;BME280;5858;43.076;25.626;2022-10-15T00:38:24;99646.94;;;11.44;94.07
11605;BME280;5858;43.076;25.626;2022-10-15T00:40:53;99576.56;;;10.89;94.53
11605;BME280;5858;43.076;25.626;2022-10-15T00:43:37;99610.59;;;11.03;94.63
11605;BME280;5858;43.076;25.626;2022-10-15T00:46:06;99671.53;;;11.24;95.10
11605;BME280;5858;43.076;25.626;2022-10-15T00:48:38;99654.34;;;11.19;95.23
11605;BME280;5858;43.076;25.626;2022-10-15T00:51:05;99581.56;;;10.92;94.26
11605;BME280;5858;43.076;25.626;2022-10-15T00:53:32;99661.59;;;11.33;94.56
11605;BME280;5858;43.076;25.626;2022-10-15T00:56:01;99671.59;;;11.39;95.21
11605;BME280;5858;43.076;25.626;2022-10-15T00:58:30;99671.00;;;11.29;95.05
11605;BME280;5858;43.076;25.626;2022-10-15T01:00:58;99670.63;;;11.32;95.15
11605;BME280;5858;43.076;25.626;2022-10-15T01:03:25;99682.78;;;11.43;95.70
11605;BME280;5858;43.076;25.626;2022-10-15T01:05:52;99681.94;;;11.19;96.21
11605;BME280;5858;43.076;25.626;2022-10-15T01:08:20;99705.16;;;11.27;96.38
11605;BME280;5858;43.076;25.626;2022-10-15T01:10:51;99692.00;;;11.17;96.89
11605;BME280;5858;43.076;25.626;2022-10-15T01:13:28;99666.53;;;10.98;96.99
11605;BME280;5858;43.076;25.626;2022-10-15T01:16:03;99511.34;;;10.05;96.72
11605;BME280;5858;43.076;25.626;2022-10-15T01:18:34;99676.41;;;10.98;96.58
11605;BME280;5858;43.076;25.626;2022-10-15T01:21:09;99695.16;;;11.21;96.76
11605;BME280;5858;43.076;25.626;2022-10-15T01:24:05;99593.72;;;10.49;96.73
11605;BME280;5858;43.076;25.626;2022-10-15T01:27:07;99532.34;;;10.17;96.72
11605;BME280;5858;43.076;25.626;2022-10-15T01:32:36;99612.59;;;10.56;96.79
11605;BME280;5858;43.076;25.626;2022-10-15T01:35:10;99651.56;;;10.81;96.45
11605;BME280;5858;43.076;25.626;2022-10-15T01:37:44;99595.69;;;10.55;96.86
11605;BME280;5858;43.076;25.626;2022-10-15T01:40:20;99547.53;;;10.24;96.73
11605;BME280;5858;43.076;25.626;2022-10-15T01:42:53;99679.63;;;11.16;96.09
11605;BME280;5858;43.076;25.626;2022-10-15T01:45:32;99701.25;;;11.38;95.74
11605;BME280;5858;43.076;25.626;2022-10-15T01:48:05;99699.81;;;11.27;95.25
11605;BME280;5858;43.076;25.626;2022-10-15T01:50:37;99701.25;;;11.38;95.11
11605;BME280;5858;43.076;25.626;2022-10-15T01:53:07;99670.94;;;11.14;94.84
11605;BME280;5858;43.076;25.626;2022-10-15T01:55:36;99670.81;;;11.30;94.43
11605;BME280;5858;43.076;25.626;2022-10-15T01:58:09;99639.63;;;10.92;94.72
11605;BME280;5858;43.076;25.626;2022-10-15T02:00:37;99675.75;;;10.96;95.47
11605;BME280;5858;43.076;25.626;2022-10-15T02:03:05;99699.50;;;11.22;94.93
11605;BME280;5858;43.076;25.626;2022-10-15T02:05:37;99686.34;;;11.12;94.95
11605;BME280;5858;43.076;25.626;2022-10-15T02:08:11;99638.28;;;10.65;95.72
11605;BME280;5858;43.076;25.626;2022-10-15T02:10:48;99618.22;;;10.61;95.37
11605;BME280;5858;43.076;25.626;2022-10-15T02:13:23;99602.88;;;10.55;95.25
11605;BME280;5858;43.076;25.626;2022-10-15T02:15:55;99716.41;;;11.22;94.77
11605;BME280;5858;43.076;25.626;2022-10-15T02:18:32;99594.84;;;10.55;94.77
11605;BME280;5858;43.076;25.626;2022-10-15T02:21:05;99669.28;;;10.82;95.80
11605;BME280;5858;43.076;25.626;2022-10-15T02:23:40;99629.13;;;10.59;95.43
11605;BME280;5858;43.076;25.626;2022-10-15T02:26:11;99662.25;;;10.81;95.78
11605;BME280;5858;43.076;25.626;2022-10-15T02:28:43;99668.84;;;10.70;95.78
11605;BME280;5858;43.076;25.626;2022-10-15T02:31:11;99580.53;;;10.00;96.75
11605;BME280;5858;43.076;25.626;2022-10-15T02:33:40;99620.22;;;10.28;96.87
11605;BME280;5858;43.076;25.626;2022-10-15T02:36:08;99675.91;;;10.63;96.89
11605;BME280;5858;43.076;25.626;2022-10-15T02:38:36;99705.28;;;10.80;96.46
11605;BME280;5858;43.076;25.626;2022-10-15T02:41:04;99665.97;;;10.49;96.97
11605;BME280;5858;43.076;25.626;2022-10-15T02:43:34;99659.03;;;10.63;95.98
11605;BME280;5858;43.076;25.626;2022-10-15T02:46:01;99667.06;;;10.63;96.48
11605;BME280;5858;43.076;25.626;2022-10-15T02:48:29;99674.56;;;10.67;96.29
11605;BME280;5858;43.076;25.626;2022-10-15T02:50:57;99562.19;;;9.97;96.29
11605;BME280;5858;43.076;25.626;2022-10-15T02:53:24;99706.09;;;10.80;96.51
11605;BME280;5858;43.076;25.626;2022-10-15T02:55:51;99702.72;;;10.86;96.63
11605;BME280;5858;43.076;25.626;2022-10-15T02:58:18;99651.63;;;10.42;96.73
11605;BME280;5858;43.076;25.626;2022-10-15T03:00:45;99612.59;;;10.08;97.86
11605;BME280;5858;43.076;25.626;2022-10-15T03:03:12;99687.50;;;10.56;97.19
11605;BME280;5858;43.076;25.626;2022-10-15T03:05:39;99701.94;;;10.78;96.46
11605;BME280;5858;43.076;25.626;2022-10-15T03:08:07;99664.78;;;10.52;96.57
11605;BME280;5858;43.076;25.626;2022-10-15T03:10:34;99677.50;;;10.50;96.99
11605;BME280;5858;43.076;25.626;2022-10-15T03:13:01;99686.03;;;10.45;98.29
11605;BME280;5858;43.076;25.626;2022-10-15T03:15:32;99706.53;;;10.61;97.84
11605;BME280;5858;43.076;25.626;2022-10-15T03:17:59;99573.88;;;9.88;97.43
11605;BME280;5858;43.076;25.626;2022-10-15T03:20:25;99655.16;;;10.26;97.65
11605;BME280;5858;43.076;25.626;2022-10-15T03:22:52;99606.97;;;9.87;97.41
11605;BME280;5858;43.076;25.626;2022-10-15T03:25:21;99537.63;;;9.46;97.50
11605;BME280;5858;43.076;25.626;2022-10-15T03:27:48;99658.00;;;10.25;98.03
11605;BME280;5858;43.076;25.626;2022-10-15T03:30:17;99641.31;;;10.23;97.88
11605;BME280;5858;43.076;25.626;2022-10-15T03:32:44;99639.16;;;10.10;98.32
11605;BME280;5858;43.076;25.626;2022-10-15T03:35:11;99690.41;;;10.38;98.84
11605;BME280;5858;43.076;25.626;2022-10-15T03:37:42;99678.94;;;10.21;99.11
11605;BME280;5858;43.076;25.626;2022-10-15T03:40:10;99533.94;;;9.39;98.80
11605;BME280;5858;43.076;25.626;2022-10-15T03:42:38;99669.53;;;10.25;98.93
11605;BME280;5858;43.076;25.626;2022-10-15T03:45:08;99688.53;;;10.47;98.33
11605;BME280;5858;43.076;25.626;2022-10-15T03:47:35;99641.47;;;10.13;98.08
11605;BME280;5858;43.076;25.626;2022-10-15T03:50:03;99708.34;;;10.68;97.75
11605;BME280;5858;43.076;25.626;2022-10-15T03:52:30;99680.66;;;10.53;97.68
11605;BME280;5858;43.076;25.626;2022-10-15T03:54:57;99766.00;;;10.79;97.80
11605;BME280;5858;43.076;25.626;2022-10-15T03:57:24;99698.25;;;10.48;97.42
11605;BME280;5858;43.076;25.626;2022-10-15T03:59:52;99589.25;;;9.94;96.99
11605;BME280;5858;43.076;25.626;2022-10-15T04:02:19;99646.38;;;10.01;97.12
11605;BME280;5858;43.076;25.626;2022-10-15T04:04:46;99647.03;;;10.03;97.31
11605;BME280;5858;43.076;25.626;2022-10-15T04:07:13;99654.41;;;9.93;97.99
11605;BME280;5858;43.076;25.626;2022-10-15T04:09:39;99703.66;;;10.23;97.78
11605;BME280;5858;43.076;25.626;2022-10-15T04:12:06;99715.16;;;10.32;97.56
11605;BME280;5858;43.076;25.626;2022-10-15T04:14:33;99638.53;;;9.84;97.22
11605;BME280;5858;43.076;25.626;2022-10-15T04:17:01;99734.25;;;10.21;97.48
11605;BME280;5858;43.076;25.626;2022-10-15T04:19:28;99627.25;;;9.41;98.50
11605;BME280;5858;43.076;25.626;2022-10-15T04:21:56;99743.63;;;9.84;99.46
11605;BME280;5858;43.076;25.626;2022-10-15T04:24:23;99571.06;;;9.02;98.78
11605;BME280;5858;43.076;25.626;2022-10-15T04:26:50;99620.06;;;9.33;97.97
11605;BME280;5858;43.076;25.626;2022-10-15T04:29:18;99663.13;;;9.63;98.22
11605;BME280;5858;43.076;25.626;2022-10-15T04:31:45;99711.03;;;9.89;97.92
11605;BME280;5858;43.076;25.626;2022-10-15T04:34:13;99689.66;;;9.81;98.06
11605;BME280;5858;43.076;25.626;2022-10-15T04:36:40;99684.66;;;9.77;97.85
11605;BME280;5858;43.076;25.626;2022-10-15T04:39:07;99569.38;;;9.01;97.90
11605;BME280;5858;43.076;25.626;2022-10-15T04:41:34;99734.44;;;10.03;97.99
11605;BME280;5858;43.076;25.626;2022-10-15T04:44:01;99731.91;;;9.85;98.43
11605;BME280;5858;43.076;25.626;2022-10-15T04:46:31;99688.03;;;9.63;97.99
11605;BME280;5858;43.076;25.626;2022-10-15T04:48:59;99642.59;;;9.39;97.18
11605;BME280;5858;43.076;25.626;2022-10-15T04:51:28;99635.09;;;9.26;97.30
11605;BME280;5858;43.076;25.626;2022-10-15T04:53:55;99682.16;;;9.43;97.76
11605;BME280;5858;43.076;25.626;2022-10-15T04:56:22;99754.31;;;10.00;97.69
11605;BME280;5858;43.076;25.626;2022-10-15T04:58:49;99667.16;;;9.51;96.84
11605;BME280;5858;43.076;25.626;2022-10-15T05:01:17;99765.84;;;10.09;97.69
11605;BME280;5858;43.076;25.626;2022-10-15T05:03:47;99762.16;;;10.10;97.59
11605;BME280;5858;43.076;25.626;2022-10-15T05:06:16;99586.69;;;8.97;96.86
11605;BME280;5858;43.076;25.626;2022-10-15T05:08:47;99710.22;;;9.72;97.17
11605;BME280;5858;43.076;25.626;2022-10-15T05:11:16;99698.88;;;9.62;96.94
11605;BME280;5858;43.076;25.626;2022-10-15T05:13:43;99633.59;;;9.07;96.88
11605;BME280;5858;43.076;25.626;2022-10-15T05:16:13;99682.34;;;9.58;96.45
11605;BME280;5858;43.076;25.626;2022-10-15T05:18:41;99696.38;;;9.52;96.54
11605;BME280;5858;43.076;25.626;2022-10-15T05:21:09;99674.81;;;9.21;97.38
11605;BME280;5858;43.076;25.626;2022-10-15T05:23:36;99686.00;;;9.25;97.52
11605;BME280;5858;43.076;25.626;2022-10-15T05:26:07;99725.91;;;9.34;98.54
11605;BME280;5858;43.076;25.626;2022-10-15T05:28:34;99770.69;;;9.65;98.34
11605;BME280;5858;43.076;25.626;2022-10-15T05:31:05;99720.88;;;9.39;98.31
11605;BME280;5858;43.076;25.626;2022-10-15T05:33:33;99716.88;;;9.35;98.26
11605;BME280;5858;43.076;25.626;2022-10-15T05:36:10;99666.47;;;9.16;97.97
11605;BME280;5858;43.076;25.626;2022-10-15T05:38:38;99605.53;;;8.87;97.16
11605;BME280;5858;43.076;25.626;2022-10-15T05:41:18;99616.88;;;8.81;97.67
11605;BME280;5858;43.076;25.626;2022-10-15T05:43:46;99807.28;;;10.05;97.40
11605;BME280;5858;43.076;25.626;2022-10-15T05:46:13;99754.66;;;9.73;97.19
11605;BME280;5858;43.076;25.626;2022-10-15T05:48:42;99648.75;;;8.91;97.78
11605;BME280;5858;43.076;25.626;2022-10-15T05:51:13;99627.38;;;8.82;97.59
11605;BME280;5858;43.076;25.626;2022-10-15T05:53:40;99772.34;;;9.74;98.10
11605;BME280;5858;43.076;25.626;2022-10-15T05:56:08;99817.28;;;10.19;97.66
11605;BME280;5858;43.076;25.626;2022-10-15T05:58:37;99738.09;;;9.77;96.64
11605;BME280;5858;43.076;25.626;2022-10-15T06:01:05;99752.47;;;9.93;95.98
11605;BME280;5858;43.076;25.626;2022-10-15T06:03:32;99643.59;;;9.38;95.86
11605;BME280;5858;43.076;25.626;2022-10-15T06:06:00;99703.53;;;9.68;94.84
11605;BME280;5858;43.076;25.626;2022-10-15T06:08:27;99822.97;;;10.49;94.75
11605;BME280;5858;43.076;25.626;2022-10-15T06:10:54;99825.50;;;10.42;95.23
11605;BME280;5858;43.076;25.626;2022-10-15T06:13:23;99789.56;;;10.28;95.01
11605;BME280;5858;43.076;25.626;2022-10-15T06:15:51;99703.03;;;9.81;95.02
11605;BME280;5858;43.076;25.626;2022-10-15T06:18:21;99809.03;;;10.69;94.70
11605;BME280;5858;43.076;25.626;2022-10-15T06:20:50;99798.16;;;10.71;93.46
11605;BME280;5858;43.076;25.626;2022-10-15T06:23:18;99780.09;;;10.73;92.54
11605;BME280;5858;43.076;25.626;2022-10-15T06:25:46;99835.38;;;11.05;92.56
11605;BME280;5858;43.076;25.626;2022-10-15T06:28:13;99721.00;;;10.44;92.11
11605;BME280;5858;43.076;25.626;2022-10-15T06:30:48;99687.41;;;10.33;91.47
11605;BME280;5858;43.076;25.626;2022-10-15T06:33:19;99833.84;;;11.11;91.46
11605;BME280;5858;43.076;25.626;2022-10-15T06:35:46;99810.13;;;10.99;91.39
11605;BME280;5858;43.076;25.626;2022-10-15T06:38:12;99823.59;;;11.14;91.40
11605;BME280;5858;43.076;25.626;2022-10-15T06:40:39;99757.81;;;10.81;90.89
11605;BME280;5858;43.076;25.626;2022-10-15T06:43:08;99773.72;;;10.74;91.28
11605;BME280;5858;43.076;25.626;2022-10-15T06:45:36;99820.03;;;10.83;92.62
11605;BME280;5858;43.076;25.626;2022-10-15T06:48:04;99856.53;;;11.23;91.90
11605;BME280;5858;43.076;25.626;2022-10-15T06:50:35;99733.84;;;10.48;91.74
11605;BME280;5858;43.076;25.626;2022-10-15T06:53:02;99812.03;;;10.75;92.06
11605;BME280;5858;43.076;25.626;2022-10-15T06:55:29;99797.59;;;10.84;92.17
11605;BME280;5858;43.076;25.626;2022-10-15T06:57:57;99806.59;;;10.99;91.80
11605;BME280;5858;43.076;25.626;2022-10-15T07:00:24;99750.25;;;10.84;91.41
11605;BME280;5858;43.076;25.626;2022-10-15T07:02:51;99770.66;;;11.24;90.53
11605;BME280;5858;43.076;25.626;2022-10-15T07:05:19;99807.13;;;11.56;90.73
11605;BME280;5858;43.076;25.626;2022-10-15T07:07:51;99754.97;;;11.44;89.62
11605;BME280;5858;43.076;25.626;2022-10-15T07:10:18;99767.94;;;11.55;88.18
11605;BME280;5858;43.076;25.626;2022-10-15T07:12:47;99766.69;;;11.66;88.05
11605;BME280;5858;43.076;25.626;2022-10-15T07:15:15;99827.63;;;12.03;88.56
11605;BME280;5858;43.076;25.626;2022-10-15T07:17:46;99764.13;;;11.73;87.80
11605;BME280;5858;43.076;25.626;2022-10-15T07:20:14;99842.44;;;12.37;87.59
11605;BME280;5858;43.076;25.626;2022-10-15T07:22:41;99756.41;;;12.01;86.98
11605;BME280;5858;43.076;25.626;2022-10-15T07:25:09;99818.09;;;12.38;86.85
11605;BME280;5858;43.076;25.626;2022-10-15T07:27:36;99835.50;;;12.42;86.39
11605;BME280;5858;43.076;25.626;2022-10-15T07:30:05;99880.41;;;12.63;86.46
11605;BME280;5858;43.076;25.626;2022-10-15T07:32:33;99829.47;;;12.40;86.29
11605;BME280;5858;43.076;25.626;2022-10-15T07:35:00;99775.94;;;12.24;85.62
11605;BME280;5858;43.076;25.626;2022-10-15T07:37:27;99788.06;;;12.20;86.19
11605;BME280;5858;43.076;25.626;2022-10-15T07:39:56;99872.34;;;12.48;87.28
11605;BME280;5858;43.076;25.626;2022-10-15T07:42:25;99873.00;;;12.27;87.66
11605;BME280;5858;43.076;25.626;2022-10-15T07:45:00;99772.31;;;11.79;87.21
11605;BME280;5858;43.076;25.626;2022-10-15T07:47:28;99762.34;;;11.65;87.42
11605;BME280;5858;43.076;25.626;2022-10-15T07:50:00;99713.56;;;11.24;88.13
11605;BME280;5858;43.076;25.626;2022-10-15T07:52:30;99880.25;;;12.04;89.51
11605;BME280;5858;43.076;25.626;2022-10-15T07:55:06;99773.53;;;11.46;90.88
11605;BME280;5858;43.076;25.626;2022-10-15T07:57:35;99831.50;;;11.70;92.38
11605;BME280;5858;43.076;25.626;2022-10-15T08:00:03;99720.50;;;11.10;92.33
11605;BME280;5858;43.076;25.626;2022-10-15T08:02:30;99848.63;;;12.14;92.79
11605;BME280;5858;43.076;25.626;2022-10-15T08:04:57;99827.69;;;11.95;92.61
11605;BME280;5858;43.076;25.626;2022-10-15T08:07:24;99803.44;;;11.88;91.81
11605;BME280;5858;43.076;25.626;2022-10-15T08:09:51;99768.94;;;11.77;92.23
11605;BME280;5858;43.076;25.626;2022-10-15T08:12:20;99783.56;;;11.97;91.30
11605;BME280;5858;43.076;25.626;2022-10-15T08:14:49;99718.56;;;11.73;90.52
11605;BME280;5858;43.076;25.626;2022-10-15T08:17:17;99795.63;;;12.16;90.85
11605;BME280;5858;43.076;25.626;2022-10-15T08:19:44;99865.22;;;12.55;91.20
11605;BME280;5858;43.076;25.626;2022-10-15T08:22:11;99732.50;;;11.68;90.81
11605;BME280;5858;43.076;25.626;2022-10-15T08:24:38;99766.44;;;11.76;89.86
11605;BME280;5858;43.076;25.626;2022-10-15T08:27:19;99851.06;;;12.47;89.82
11605;BME280;5858;43.076;25.626;2022-10-15T08:29:58;99855.59;;;12.76;89.79
11605;BME280;5858;43.076;25.626;2022-10-15T08:32:25;99756.03;;;12.18;88.53
11605;BME280;5858;43.076;25.626;2022-10-15T08:34:54;99894.72;;;12.78;88.88
11605;BME280;5858;43.076;25.626;2022-10-15T08:37:20;99899.91;;;12.80;89.21
11605;BME280;5858;43.076;25.626;2022-10-15T08:39:50;99802.00;;;12.38;89.57
11605;BME280;5858;43.076;25.626;2022-10-15T08:42:21;99734.75;;;12.02;86.39
11605;BME280;5858;43.076;25.626;2022-10-15T08:45:06;99789.88;;;12.42;84.28
11605;BME280;5858;43.076;25.626;2022-10-15T08:47:47;99835.03;;;12.53;84.24
11605;BME280;5858;43.076;25.626;2022-10-15T08:50:44;99717.63;;;12.03;82.79
11605;BME280;5858;43.076;25.626;2022-10-15T08:53:41;99718.09;;;12.07;85.12
11605;BME280;5858;43.076;25.626;2022-10-15T08:56:15;99854.44;;;12.93;86.27
11605;BME280;5858;43.076;25.626;2022-10-15T08:58:51;99734.50;;;12.26;84.53
11605;BME280;5858;43.076;25.626;2022-10-15T09:01:37;99783.22;;;12.68;85.19
11605;BME280;5858;43.076;25.626;2022-10-15T09:04:17;99810.06;;;12.97;85.23
11605;BME280;5858;43.076;25.626;2022-10-15T09:06:48;99769.59;;;12.40;82.72
11605;BME280;5858;43.076;25.626;2022-10-15T09:09:22;99799.97;;;12.84;83.00
11605;BME280;5858;43.076;25.626;2022-10-15T09:11:57;99794.13;;;12.51;83.53
11605;BME280;5858;43.076;25.626;2022-10-15T09:16:03;99767.47;;;12.50;83.07
11605;BME280;5858;43.076;25.626;2022-10-15T09:17:51;99834.50;;;12.73;82.91
11605;BME280;5858;43.076;25.626;2022-10-15T09:20:24;99833.41;;;12.82;82.65
11605;BME280;5858;43.076;25.626;2022-10-15T09:22:51;99832.38;;;13.12;82.56
11605;BME280;5858;43.076;25.626;2022-10-15T09:25:21;99871.28;;;13.46;81.34
11605;BME280;5858;43.076;25.626;2022-10-15T09:27:49;99861.47;;;13.23;81.93
11605;BME280;5858;43.076;25.626;2022-10-15T09:30:33;99838.59;;;12.98;81.37
11605;BME280;5858;43.076;25.626;2022-10-15T09:33:07;99743.22;;;12.58;81.15
11605;BME280;5858;43.076;25.626;2022-10-15T09:35:42;99899.25;;;13.66;81.77
11605;BME280;5858;43.076;25.626;2022-10-15T09:38:22;99858.66;;;13.61;81.36
11605;BME280;5858;43.076;25.626;2022-10-15T09:40:58;99812.25;;;13.38;82.49
11605;BME280;5858;43.076;25.626;2022-10-15T09:43:29;99878.28;;;13.98;81.11
11605;BME280;5858;43.076;25.626;2022-10-15T09:46:00;99875.78;;;14.17;79.88
11605;BME280;5858;43.076;25.626;2022-10-15T09:48:31;99875.63;;;14.19;79.41
11605;BME280;5858;43.076;25.626;2022-10-15T09:51:06;99857.72;;;13.90;78.72
11605;BME280;5858;43.076;25.626;2022-10-15T09:53:45;99868.53;;;14.18;78.45
11605;BME280;5858;43.076;25.626;2022-10-15T09:56:20;99735.47;;;13.50;79.44
11605;BME280;5858;43.076;25.626;2022-10-15T09:58:50;99872.34;;;14.45;78.61
11605;BME280;5858;43.076;25.626;2022-10-15T10:01:21;99860.22;;;14.56;78.83
11605;BME280;5858;43.076;25.626;2022-10-15T10:03:53;99734.41;;;13.94;76.59
11605;BME280;5858;43.076;25.626;2022-10-15T10:06:22;99846.34;;;14.87;77.30
11605;BME280;5858;43.076;25.626;2022-10-15T10:08:53;99798.75;;;14.38;75.67
11605;BME280;5858;43.076;25.626;2022-10-15T10:11:22;99809.84;;;14.28;75.92
11605;BME280;5858;43.076;25.626;2022-10-15T10:13:52;99734.31;;;13.80;75.58
11605;BME280;5858;43.076;25.626;2022-10-15T10:16:20;99897.84;;;14.49;76.56
11605;BME280;5858;43.076;25.626;2022-10-15T10:19:12;99895.97;;;14.71;75.58
11605;BME280;5858;43.076;25.626;2022-10-15T10:21:41;99793.91;;;14.27;75.22
11605;BME280;5858;43.076;25.626;2022-10-15T10:24:25;99878.31;;;14.96;75.87
11605;BME280;5858;43.076;25.626;2022-10-15T10:26:55;99890.00;;;15.10;75.69
11605;BME280;5858;43.076;25.626;2022-10-15T10:29:23;99871.75;;;15.05;76.47
11605;BME280;5858;43.076;25.626;2022-10-15T10:31:51;99793.31;;;14.94;74.49
11605;BME280;5858;43.076;25.626;2022-10-15T10:34:24;99738.84;;;14.64;73.48
11605;BME280;5858;43.076;25.626;2022-10-15T10:36:53;99864.50;;;15.54;73.19
11605;BME280;5858;43.076;25.626;2022-10-15T10:39:29;99797.25;;;15.46;73.44
11605;BME280;5858;43.076;25.626;2022-10-15T10:41:58;99748.44;;;15.14;71.06
11605;BME280;5858;43.076;25.626;2022-10-15T10:44:45;99733.97;;;15.35;72.81
11605;BME280;5858;43.076;25.626;2022-10-15T10:47:34;99833.16;;;16.27;68.32
11605;BME280;5858;43.076;25.626;2022-10-15T10:50:26;99870.34;;;16.58;69.36
11605;BME280;5858;43.076;25.626;2022-10-15T10:52:54;99852.03;;;16.53;68.36
11605;BME280;5858;43.076;25.626;2022-10-15T10:55:22;99777.28;;;16.21;68.03
11605;BME280;5858;43.076;25.626;2022-10-15T10:58:03;99770.00;;;16.08;67.75
11605;BME280;5858;43.076;25.626;2022-10-15T11:00:36;99796.78;;;16.36;68.36
11605;BME280;5858;43.076;25.626;2022-10-15T11:03:05;99841.84;;;16.55;68.94
11605;BME280;5858;43.076;25.626;2022-10-15T11:05:37;99828.78;;;16.39;68.48
11605;BME280;5858;43.076;25.626;2022-10-15T11:08:13;99741.97;;;15.63;69.44
11605;BME280;5858;43.076;25.626;2022-10-15T11:10:55;99705.16;;;15.49;70.23
11605;BME280;5858;43.076;25.626;2022-10-15T11:13:39;99877.81;;;16.43;72.07
11605;BME280;5858;43.076;25.626;2022-10-15T11:16:22;99697.63;;;15.18;71.73
11605;BME280;5858;43.076;25.626;2022-10-15T11:19:06;99691.78;;;15.07;71.45
11605;BME280;5858;43.076;25.626;2022-10-15T11:21:53;99706.69;;;14.97;73.55
11605;BME280;5858;43.076;25.626;2022-10-15T11:24:30;99749.50;;;15.26;72.09
11605;BME280;5858;43.076;25.626;2022-10-15T11:27:11;99753.91;;;15.54;73.38
11605;BME280;5858;43.076;25.626;2022-10-15T11:29:52;99746.72;;;15.61;71.62
11605;BME280;5858;43.076;25.626;2022-10-15T11:32:32;99841.47;;;16.19;72.60
11605;BME280;5858;43.076;25.626;2022-10-15T11:35:32;99838.75;;;16.45;71.30
11605;BME280;5858;43.076;25.626;2022-10-15T11:38:22;99743.00;;;16.01;71.13
11605;BME280;5858;43.076;25.626;2022-10-15T11:41:04;99796.78;;;16.62;69.51
11605;BME280;5858;43.076;25.626;2022-10-15T11:43:46;99730.75;;;15.92;69.05
11605;BME280;5858;43.076;25.626;2022-10-15T11:46:23;99709.16;;;15.79;69.52
11605;BME280;5858;43.076;25.626;2022-10-15T11:49:25;99727.84;;;15.81;70.06
11605;BME280;5858;43.076;25.626;2022-10-15T11:52:12;99703.97;;;15.91;69.47
11605;BME280;5858;43.076;25.626;2022-10-15T11:55:00;99674.72;;;15.81;68.97
11605;BME280;5858;43.076;25.626;2022-10-15T11:57:32;99742.53;;;16.51;68.41
11605;BME280;5858;43.076;25.626;2022-10-15T12:00:08;99796.09;;;16.93;68.58
11605;BME280;5858;43.076;25.626;2022-10-15T12:02:40;99674.38;;;16.49;66.58
11605;BME280;5858;43.076;25.626;2022-10-15T12:05:09;99697.44;;;16.51;66.27
11605;BME280;5858;43.076;25.626;2022-10-15T12:07:40;99783.88;;;17.36;64.53
11605;BME280;5858;43.076;25.626;2022-10-15T12:10:19;99699.63;;;16.87;62.80
11605;BME280;5858;43.076;25.626;2022-10-15T12:12:53;99827.66;;;17.64;62.40
11605;BME280;5858;43.076;25.626;2022-10-15T12:15:33;99780.66;;;17.90;63.13
11605;BME280;5858;43.076;25.626;2022-10-15T12:18:12;99783.22;;;18.35;63.58
11605;BME280;5858;43.076;25.626;2022-10-15T12:20:41;99701.63;;;17.75;59.00
11605;BME280;5858;43.076;25.626;2022-10-15T12:23:22;99777.44;;;18.06;61.18
11605;BME280;5858;43.076;25.626;2022-10-15T12:25:51;99764.78;;;17.93;61.64
11605;BME280;5858;43.076;25.626;2022-10-15T12:28:20;99733.94;;;17.70;62.34
11605;BME280;5858;43.076;25.626;2022-10-15T12:30:56;99784.84;;;17.86;60.96
11605;BME280;5858;43.076;25.626;2022-10-15T12:33:33;99732.69;;;17.34;62.45
11605;BME280;5858;43.076;25.626;2022-10-15T12:36:04;99641.78;;;16.37;63.05
11605;BME280;5858;43.076;25.626;2022-10-15T12:38:36;99730.38;;;16.93;64.02
11605;BME280;5858;43.076;25.626;2022-10-15T12:41:08;99623.03;;;16.49;63.97
11605;BME280;5858;43.076;25.626;2022-10-15T12:43:39;99650.63;;;16.77;64.95
11605;BME280;5858;43.076;25.626;2022-10-15T12:46:08;99733.16;;;17.24;63.32
11605;BME280;5858;43.076;25.626;2022-10-15T12:48:38;99647.09;;;16.77;61.54
11605;BME280;5858;43.076;25.626;2022-10-15T12:51:35;99790.09;;;17.81;63.62
11605;BME280;5858;43.076;25.626;2022-10-15T12:54:33;99747.72;;;17.61;62.17
11605;BME280;5858;43.076;25.626;2022-10-15T12:57:10;99798.44;;;17.79;63.13
11605;BME280;5858;43.076;25.626;2022-10-15T12:59:56;99779.47;;;17.41;66.11
11605;BME280;5858;43.076;25.626;2022-10-15T13:02:35;99801.47;;;17.58;66.27
11605;BME280;5858;43.076;25.626;2022-10-15T13:05:03;99741.94;;;17.20;65.49
11605;BME280;5858;43.076;25.626;2022-10-15T13:07:38;99798.09;;;17.62;65.88
11605;BME280;5858;43.076;25.626;2022-10-15T13:10:18;99680.06;;;16.92;64.50
11605;BME280;5858;43.076;25.626;2022-10-15T13:12:51;99794.91;;;17.79;63.84
11605;BME280;5858;43.076;25.626;2022-10-15T13:15:21;99761.91;;;17.57;64.26
11605;BME280;5858;43.076;25.626;2022-10-15T13:17:50;99647.34;;;17.07;63.70
11605;BME280;5858;43.076;25.626;2022-10-15T13:20:29;99662.75;;;17.38;62.42
11605;BME280;5858;43.076;25.626;2022-10-15T13:23:07;99733.78;;;17.89;60.49
11605;BME280;5858;43.076;25.626;2022-10-15T13:25:36;99787.09;;;18.20;57.40
11605;BME280;5858;43.076;25.626;2022-10-15T13:28:32;99810.31;;;18.35;57.31
11605;BME280;5858;43.076;25.626;2022-10-15T13:31:04;99731.91;;;17.90;57.14